Time;durP1;ratioP1;P1;durP2;ratioP2;P2;SDS_P1;SDS_P2;PMS_P1;PMS_P2;Temp;Humidity;BMP_temperature;BMP_pressure;BME280_temperature;BME280_humidity;BME280_pressure;Samples;Min_cycle;Max_cycle;Signal;HPM_P1;HPM_P2
2021/12/12 00:02:11;;;;;;;10.93;6.97;;;;;;;;;;5010673;28;20803;-80
2021/12/12 00:04:38;;;;;;;12.13;6.80;;;;;;;;;;4997519;28;20330;-79
2021/12/12 00:07:06;;;;;;;11.50;7.70;;;;;;;;;;4998526;28;20786;-81
2021/12/12 00:09:33;;;;;;;12.83;7.43;;;;;;;;;;5002548;28;20254;-81
2021/12/12 00:11:59;;;;;;;14.17;7.87;;;;;;;;;;5007587;28;22012;-79
2021/12/12 00:14:27;;;;;;;10.30;7.07;;;;;;;;;;4981131;28;20760;-79
2021/12/12 00:16:53;;;;;;;11.67;7.00;;;;;;;;;;5021660;28;20228;-79
2021/12/12 00:19:19;;;;;;;11.57;7.23;;;;;;;;;;5002261;28;20239;-82
2021/12/12 00:21:45;;;;;;;10.63;6.47;;;;;;;;;;4982387;28;20243;-79
2021/12/12 00:24:12;;;;;;;8.93;6.53;;;;;;;;;;5009536;28;20238;-80
2021/12/12 00:26:38;;;;;;;9.03;7.00;;;;;;;;;;4996532;28;20227;-82
2021/12/12 00:29:05;;;;;;;13.07;7.83;;;;;;;;;;5032233;28;20242;-80
2021/12/12 00:31:31;;;;;;;10.90;7.30;;;;;;;;;;5003820;28;20255;-80
2021/12/12 00:33:57;;;;;;;12.23;7.27;;;;;;;;;;4978846;28;20799;-79
2021/12/12 00:36:23;;;;;;;10.23;6.80;;;;;;;;;;5020694;28;20228;-79
2021/12/12 00:38:51;;;;;;;13.53;7.23;;;;;;;;;;4990507;28;20295;-79
2021/12/12 00:41:17;;;;;;;12.17;7.33;;;;;;;;;;4977766;28;20313;-79
2021/12/12 00:43:44;;;;;;;11.50;7.20;;;;;;;;;;4980649;28;20244;-80
2021/12/12 00:46:11;;;;;;;11.33;6.57;;;;;;;;;;5020750;28;20247;-80
2021/12/12 00:48:37;;;;;;;11.43;7.20;;;;;;;;;;4972914;28;20235;-80
2021/12/12 00:51:04;;;;;;;11.03;7.57;;;;;;;;;;4995291;28;20236;-80
2021/12/12 00:53:30;;;;;;;9.00;6.70;;;;;;;;;;5002313;28;20236;-79
2021/12/12 00:55:56;;;;;;;12.20;6.90;;;;;;;;;;5020524;28;20223;-79
2021/12/12 00:58:23;;;;;;;10.67;6.63;;;;;;;;;;5003248;28;20616;-80
2021/12/12 01:00:51;;;;;;;11.60;6.97;;;;;;;;;;4999986;28;20355;-81
2021/12/12 01:03:19;;;;;;;13.93;6.97;;;;;;;;;;4978679;28;20730;-78
2021/12/12 01:05:46;;;;;;;10.70;7.30;;;;;;;;;;5006645;28;20239;-79
2021/12/12 01:08:14;;;;;;;10.70;6.77;;;;;;;;;;4999854;28;20263;-81
2021/12/12 01:10:44;;;;;;;12.70;6.50;;;;;;;;;;5014358;28;20257;-80
2021/12/12 01:13:10;;;;;;;13.53;7.23;;;;;;;;;;5004585;28;21057;-80
2021/12/12 01:15:40;;;;;;;10.23;6.40;;;;;;;;;;5017706;28;20228;-79
2021/12/12 01:18:11;;;;;;;13.17;6.97;;;;;;;;;;5026695;28;20318;-80
2021/12/12 01:21:00;;;;;;;9.83;6.47;;;;;;;;;;4975275;28;20315;-80
2021/12/12 01:23:34;;;;;;;9.43;6.33;;;;;;;;;;5027523;28;22020;-79
2021/12/12 01:26:00;;;;;;;9.63;5.97;;;;;;;;;;4992601;28;20258;-80
2021/12/12 01:28:27;;;;;;;11.20;6.20;;;;;;;;;;5014530;28;20361;-80
2021/12/12 01:30:54;;;;;;;13.20;6.70;;;;;;;;;;5010050;28;20368;-81
2021/12/12 01:33:33;;;;;;;9.23;5.63;;;;;;;;;;5006001;28;20731;-81
2021/12/12 01:36:00;;;;;;;10.63;5.80;;;;;;;;;;5002445;28;20556;-79
2021/12/12 01:41:11;;;;;;;10.33;6.13;;;;;;;;;;5025686;28;20643;-79
2021/12/12 01:43:40;;;;;;;9.87;6.20;;;;;;;;;;4982465;28;20709;-79
2021/12/12 01:46:07;;;;;;;10.90;6.83;;;;;;;;;;5008308;28;20380;-79
2021/12/12 01:48:35;;;;;;;11.07;6.40;;;;;;;;;;5018967;28;20316;-80
2021/12/12 01:51:04;;;;;;;13.97;6.40;;;;;;;;;;5002687;28;20236;-81
2021/12/12 01:53:31;;;;;;;9.57;6.30;;;;;;;;;;5030501;28;20717;-80
2021/12/12 01:56:12;;;;;;;13.60;5.63;;;;;;;;;;5036422;28;20216;-81
2021/12/12 01:58:38;;;;;;;9.33;6.37;;;;;;;;;;5006626;28;20227;-81
2021/12/12 02:01:06;;;;;;;10.53;6.57;;;;;;;;;;4989994;28;20243;-79
2021/12/12 02:03:32;;;;;;;8.43;5.60;;;;;;;;;;5019465;28;20882;-80
2021/12/12 02:05:58;;;;;;;10.97;6.83;;;;;;;;;;4993215;28;20237;-79
2021/12/12 02:08:24;;;;;;;12.03;6.33;;;;;;;;;;5016084;28;20243;-81
2021/12/12 02:10:52;;;;;;;9.57;5.90;;;;;;;;;;4987561;28;20231;-81
2021/12/12 02:13:19;;;;;;;10.17;5.80;;;;;;;;;;5011072;28;20913;-80
2021/12/12 02:15:45;;;;;;;12.80;6.00;;;;;;;;;;5031829;28;20319;-80
2021/12/12 02:18:13;;;;;;;8.87;5.47;;;;;;;;;;4994892;28;20239;-80
2021/12/12 02:20:52;;;;;;;10.77;5.97;;;;;;;;;;4995109;28;20232;-81
2021/12/12 02:23:30;;;;;;;12.50;6.00;;;;;;;;;;5016009;28;20381;-81
2021/12/12 02:36:57;;;;;;;11.00;5.70;;;;;;;;;;5032136;28;20332;-78
2021/12/12 02:39:23;;;;;;;12.70;5.63;;;;;;;;;;5010163;28;20239;-80
2021/12/12 02:41:56;;;;;;;10.53;5.53;;;;;;;;;;4998307;28;20887;-79
2021/12/12 02:44:27;;;;;;;10.27;5.23;;;;;;;;;;5032326;28;20239;-81
2021/12/12 02:46:54;;;;;;;12.07;5.27;;;;;;;;;;5012064;28;20989;-78
2021/12/12 02:49:53;;;;;;;12.33;5.90;;;;;;;;;;5032452;28;20609;-81
2021/12/12 02:52:11;;;;;;;10.37;5.63;;;;;;;;;;5013134;28;20370;-81
2021/12/12 02:54:37;;;;;;;10.83;5.47;;;;;;;;;;5033742;28;20234;-79
2021/12/12 02:57:03;;;;;;;8.57;5.27;;;;;;;;;;5009133;28;20247;-80
2021/12/12 02:59:29;;;;;;;10.50;5.77;;;;;;;;;;5031564;28;20240;-78
2021/12/12 03:01:57;;;;;;;9.77;5.23;;;;;;;;;;5012211;28;20751;-80
2021/12/12 03:04:23;;;;;;;12.20;5.50;;;;;;;;;;5019838;28;20316;-81
2021/12/12 03:06:49;;;;;;;11.37;5.63;;;;;;;;;;5004081;28;20236;-79
2021/12/12 03:09:21;;;;;;;12.27;6.13;;;;;;;;;;5013404;28;20236;-79
2021/12/12 03:11:47;;;;;;;12.37;5.97;;;;;;;;;;5007420;28;20236;-79
2021/12/12 03:14:13;;;;;;;10.53;5.90;;;;;;;;;;4991942;28;20311;-80
2021/12/12 03:16:39;;;;;;;9.53;5.53;;;;;;;;;;5006829;28;20336;-81
2021/12/12 03:19:06;;;;;;;9.83;5.17;;;;;;;;;;4975710;28;20728;-79
2021/12/12 03:21:32;;;;;;;9.00;5.20;;;;;;;;;;4996467;28;20240;-81
2021/12/12 03:24:06;;;;;;;11.27;5.47;;;;;;;;;;5012381;28;20255;-77
2021/12/12 03:26:32;;;;;;;9.07;5.00;;;;;;;;;;5000134;28;20557;-79
2021/12/12 03:28:58;;;;;;;9.83;5.47;;;;;;;;;;5005214;28;20750;-81
2021/12/12 03:31:26;;;;;;;9.33;5.03;;;;;;;;;;5001255;28;21010;-81
2021/12/12 03:33:52;;;;;;;13.93;5.47;;;;;;;;;;4997961;28;20240;-80
2021/12/12 03:36:18;;;;;;;9.27;5.10;;;;;;;;;;5018516;28;20232;-80
2021/12/12 03:38:55;;;;;;;8.73;5.50;;;;;;;;;;4980916;28;20255;-80
2021/12/12 03:41:23;;;;;;;14.57;5.67;;;;;;;;;;4992024;28;20247;-80
2021/12/12 03:43:50;;;;;;;9.87;5.20;;;;;;;;;;5018959;28;20293;-80
2021/12/12 03:46:16;;;;;;;10.70;5.90;;;;;;;;;;4979612;28;20640;-82
2021/12/12 03:48:42;;;;;;;11.20;5.43;;;;;;;;;;4998222;28;20238;-80
2021/12/12 03:51:08;;;;;;;15.67;5.50;;;;;;;;;;4979378;28;20232;-80
2021/12/12 03:53:35;;;;;;;11.73;5.67;;;;;;;;;;5026129;28;20236;-81
2021/12/12 03:56:01;;;;;;;11.53;5.30;;;;;;;;;;5027868;28;20239;-80
2021/12/12 03:58:27;;;;;;;15.80;5.80;;;;;;;;;;5008611;28;20681;-80
2021/12/12 04:00:57;;;;;;;13.27;6.07;;;;;;;;;;4971943;28;20315;-81
2021/12/12 04:03:23;;;;;;;10.87;5.73;;;;;;;;;;4977632;28;20327;-79
2021/12/12 04:05:50;;;;;;;12.30;5.60;;;;;;;;;;5018309;28;20355;-80
2021/12/12 04:08:16;;;;;;;11.70;6.20;;;;;;;;;;5016924;28;20597;-80
2021/12/12 04:10:42;;;;;;;12.20;5.30;;;;;;;;;;5006123;28;20319;-81
2021/12/12 04:13:09;;;;;;;13.87;5.40;;;;;;;;;;4999813;28;20816;-81
2021/12/12 04:15:35;;;;;;;10.37;5.50;;;;;;;;;;4996499;28;20232;-82
2021/12/12 04:18:01;;;;;;;9.70;5.80;;;;;;;;;;4989703;28;20239;-83
2021/12/12 04:20:29;;;;;;;9.07;4.97;;;;;;;;;;5013863;28;20550;-81
2021/12/12 04:22:55;;;;;;;9.87;5.37;;;;;;;;;;4998655;28;20313;-82
2021/12/12 04:25:22;;;;;;;11.07;5.80;;;;;;;;;;5006845;28;20721;-83
2021/12/12 04:27:48;;;;;;;10.57;6.10;;;;;;;;;;5022382;28;20230;-83
2021/12/12 04:30:14;;;;;;;11.07;5.53;;;;;;;;;;5008290;28;20671;-84
2021/12/12 04:32:40;;;;;;;11.63;5.70;;;;;;;;;;4976115;28;21231;-83
2021/12/12 04:35:08;;;;;;;14.97;6.57;;;;;;;;;;5010505;28;20238;-82
2021/12/12 04:37:34;;;;;;;12.43;5.83;;;;;;;;;;5003952;28;20785;-81
2021/12/12 04:40:00;;;;;;;12.20;5.47;;;;;;;;;;5005364;28;22422;-80
2021/12/12 04:42:33;;;;;;;10.70;5.60;;;;;;;;;;4986647;28;20237;-82
2021/12/12 04:45:11;;;;;;;10.50;5.57;;;;;;;;;;5012456;28;20675;-83
2021/12/12 04:50:33;;;;;;;13.77;6.37;;;;;;;;;;4989204;28;20314;-81
2021/12/12 04:53:02;;;;;;;14.73;6.47;;;;;;;;;;4997440;28;20224;-81
2021/12/12 04:55:29;;;;;;;8.87;6.00;;;;;;;;;;5023116;28;20232;-81
2021/12/12 04:58:13;;;;;;;11.47;6.20;;;;;;;;;;5014638;28;20267;-81
2021/12/12 05:00:46;;;;;;;9.13;5.63;;;;;;;;;;4984348;28;20788;-79
2021/12/12 05:03:31;;;;;;;11.13;6.60;;;;;;;;;;4992836;28;20383;-79
2021/12/12 05:05:57;;;;;;;12.37;6.40;;;;;;;;;;4992879;28;20232;-79
2021/12/12 05:08:34;;;;;;;13.47;6.33;;;;;;;;;;5019933;28;20233;-80
2021/12/12 05:11:06;;;;;;;12.13;6.67;;;;;;;;;;4969416;28;20374;-79
2021/12/12 05:13:33;;;;;;;14.53;6.60;;;;;;;;;;4992618;28;20729;-81
2021/12/12 05:16:00;;;;;;;10.43;6.13;;;;;;;;;;4986810;28;20232;-80
2021/12/12 05:18:31;;;;;;;14.50;6.87;;;;;;;;;;4982560;28;20404;-82
2021/12/12 05:21:02;;;;;;;12.70;6.83;;;;;;;;;;4984626;28;21291;-82
2021/12/12 05:23:28;;;;;;;12.87;6.77;;;;;;;;;;4991539;28;20637;-80
2021/12/12 05:25:54;;;;;;;15.37;7.43;;;;;;;;;;4979626;28;20228;-80
2021/12/12 05:28:21;;;;;;;13.30;6.13;;;;;;;;;;5019564;28;20924;-80
2021/12/12 05:30:47;;;;;;;13.93;6.63;;;;;;;;;;4980390;28;20263;-80
2021/12/12 05:33:13;;;;;;;12.93;6.47;;;;;;;;;;4987325;28;21339;-80
2021/12/12 05:35:39;;;;;;;16.47;6.73;;;;;;;;;;4995961;28;20267;-80
2021/12/12 05:38:05;;;;;;;18.97;7.40;;;;;;;;;;4993418;28;20251;-80
2021/12/12 05:40:32;;;;;;;12.83;6.87;;;;;;;;;;4981926;28;20227;-81
2021/12/12 05:42:59;;;;;;;16.50;6.93;;;;;;;;;;5019996;28;20995;-79
2021/12/12 05:45:25;;;;;;;17.27;7.03;;;;;;;;;;5014750;28;20242;-82
2021/12/12 05:47:51;;;;;;;12.03;6.50;;;;;;;;;;4994800;28;20240;-81
2021/12/12 05:50:17;;;;;;;12.20;7.20;;;;;;;;;;5016706;28;20732;-81
2021/12/12 05:52:43;;;;;;;14.40;7.27;;;;;;;;;;4972521;28;20235;-82
2021/12/12 05:55:09;;;;;;;17.60;7.60;;;;;;;;;;5006442;28;20319;-79
2021/12/12 05:57:35;;;;;;;15.13;7.60;;;;;;;;;;5004074;28;20269;-80
2021/12/12 06:00:03;;;;;;;15.43;7.20;;;;;;;;;;4999901;28;20232;-81
2021/12/12 06:02:29;;;;;;;11.83;7.20;;;;;;;;;;5000423;28;20247;-81
2021/12/12 06:04:56;;;;;;;14.13;7.73;;;;;;;;;;4973271;28;20315;-81
2021/12/12 06:07:22;;;;;;;16.07;7.87;;;;;;;;;;4978163;28;20236;-81
2021/12/12 06:09:48;;;;;;;14.43;7.80;;;;;;;;;;4993111;28;21106;-80
2021/12/12 06:12:14;;;;;;;15.90;8.13;;;;;;;;;;4993169;28;20287;-81
2021/12/12 06:14:40;;;;;;;14.70;7.43;;;;;;;;;;4983616;28;21414;-81
2021/12/12 06:17:07;;;;;;;15.47;8.53;;;;;;;;;;4994129;28;20242;-81
2021/12/12 06:19:33;;;;;;;16.63;7.70;;;;;;;;;;4981178;28;20318;-81
2021/12/12 06:21:59;;;;;;;13.27;7.57;;;;;;;;;;4998382;28;20236;-81
2021/12/12 06:24:26;;;;;;;12.67;7.57;;;;;;;;;;5002411;28;20267;-81
2021/12/12 06:26:52;;;;;;;44.83;13.73;;;;;;;;;;5034345;28;21035;-81
2021/12/12 06:29:19;;;;;;;28.03;11.03;;;;;;;;;;4988926;28;20235;-81
2021/12/12 06:31:45;;;;;;;33.90;10.53;;;;;;;;;;4985771;28;20672;-79
2021/12/12 06:34:12;;;;;;;32.17;11.00;;;;;;;;;;4989834;28;20339;-80
2021/12/12 06:36:40;;;;;;;24.13;9.73;;;;;;;;;;4982285;28;20245;-80
2021/12/12 06:39:07;;;;;;;24.03;9.53;;;;;;;;;;4986963;28;20297;-81
2021/12/12 06:41:34;;;;;;;20.50;9.97;;;;;;;;;;4992143;28;21642;-81
2021/12/12 06:44:02;;;;;;;25.23;9.57;;;;;;;;;;4988221;28;20745;-81
2021/12/12 06:46:28;;;;;;;21.57;9.10;;;;;;;;;;4986969;28;20240;-80
2021/12/12 06:48:54;;;;;;;25.03;9.20;;;;;;;;;;4978658;28;20475;-80
2021/12/12 06:51:20;;;;;;;23.87;9.47;;;;;;;;;;4986920;28;20326;-81
2021/12/12 06:53:46;;;;;;;16.90;8.83;;;;;;;;;;4996543;28;20717;-81
2021/12/12 06:56:14;;;;;;;22.83;9.33;;;;;;;;;;4991958;28;20774;-81
2021/12/12 06:58:43;;;;;;;17.37;9.47;;;;;;;;;;5002760;28;20728;-81
2021/12/12 07:01:11;;;;;;;14.83;7.97;;;;;;;;;;4976438;28;20236;-82
2021/12/12 07:03:37;;;;;;;15.03;8.53;;;;;;;;;;5017132;28;20617;-81
2021/12/12 07:06:03;;;;;;;14.63;8.60;;;;;;;;;;5006183;28;20592;-81
2021/12/12 07:08:29;;;;;;;19.73;8.60;;;;;;;;;;5014528;28;20235;-80
2021/12/12 07:10:55;;;;;;;294.80;81.87;;;;;;;;;;5004754;28;20238;-81
2021/12/12 07:13:21;;;;;;;701.80;246.53;;;;;;;;;;5012279;28;20329;-81
2021/12/12 07:15:51;;;;;;;759.87;280.07;;;;;;;;;;5021437;28;21019;-80
2021/12/12 07:18:18;;;;;;;530.50;178.60;;;;;;;;;;4987828;28;20235;-81
2021/12/12 07:20:45;;;;;;;545.40;174.57;;;;;;;;;;4987185;28;20595;-81
2021/12/12 07:23:11;;;;;;;483.87;153.70;;;;;;;;;;4997367;28;20282;-81
2021/12/12 07:25:37;;;;;;;437.10;134.30;;;;;;;;;;4992250;28;20301;-79
2021/12/12 07:28:04;;;;;;;382.43;119.17;;;;;;;;;;5001147;28;20688;-80
2021/12/12 07:30:30;;;;;;;342.27;109.13;;;;;;;;;;5000272;28;20363;-80
2021/12/12 07:32:56;;;;;;;304.90;99.13;;;;;;;;;;5013994;28;20644;-80
2021/12/12 07:35:21;;;;;;;257.60;82.10;;;;;;;;;;5011359;28;20244;-79
2021/12/12 07:37:48;;;;;;;247.57;76.47;;;;;;;;;;5010015;28;20701;-79
2021/12/12 07:40:15;;;;;;;238.13;70.80;;;;;;;;;;5018768;28;20732;-77
2021/12/12 07:42:41;;;;;;;220.70;71.07;;;;;;;;;;4973640;28;20311;-80
2021/12/12 07:45:08;;;;;;;204.33;63.70;;;;;;;;;;5016395;28;20227;-81
2021/12/12 07:47:34;;;;;;;173.70;55.60;;;;;;;;;;5008250;28;21311;-79
2021/12/12 07:50:00;;;;;;;173.10;55.03;;;;;;;;;;5032892;28;20243;-81
2021/12/12 07:52:28;;;;;;;151.43;48.53;;;;;;;;;;5012468;28;20698;-82
2021/12/12 07:54:55;;;;;;;154.77;48.97;;;;;;;;;;4992470;28;20736;-79
2021/12/12 07:57:21;;;;;;;129.97;42.70;;;;;;;;;;5004903;28;20696;-80
2021/12/12 07:59:50;;;;;;;350.23;113.33;;;;;;;;;;4998401;28;20253;-82
2021/12/12 08:02:16;;;;;;;558.23;198.97;;;;;;;;;;4982375;28;20242;-80
2021/12/12 08:04:42;;;;;;;480.97;169.00;;;;;;;;;;4970708;28;20255;-80
2021/12/12 08:07:09;;;;;;;448.37;151.70;;;;;;;;;;4975589;28;20239;-81
2021/12/12 08:09:41;;;;;;;379.53;126.33;;;;;;;;;;4993672;28;20239;-79
2021/12/12 08:12:08;;;;;;;361.70;123.03;;;;;;;;;;4995858;28;21198;-79
2021/12/12 08:14:36;;;;;;;340.90;114.30;;;;;;;;;;4995351;28;25065;-79
2021/12/12 08:17:02;;;;;;;319.67;106.80;;;;;;;;;;4990542;28;20580;-81
2021/12/12 08:19:29;;;;;;;312.60;107.57;;;;;;;;;;5003614;28;20232;-82
2021/12/12 08:22:00;;;;;;;290.03;96.43;;;;;;;;;;5001948;28;20244;-80
2021/12/12 08:24:28;;;;;;;248.10;83.67;;;;;;;;;;4995865;28;20236;-81
2021/12/12 08:26:55;;;;;;;253.93;85.53;;;;;;;;;;4995172;28;20290;-79
2021/12/12 08:29:21;;;;;;;220.63;74.53;;;;;;;;;;4983224;28;20232;-80
2021/12/12 08:31:47;;;;;;;218.80;70.47;;;;;;;;;;4991742;28;20966;-82
2021/12/12 08:34:13;;;;;;;169.10;59.77;;;;;;;;;;5000851;28;20993;-80
2021/12/12 08:36:40;;;;;;;156.50;55.33;;;;;;;;;;4960770;28;20901;-80
2021/12/12 08:39:06;;;;;;;161.07;55.13;;;;;;;;;;4995458;28;20694;-80
2021/12/12 08:41:32;;;;;;;147.87;51.67;;;;;;;;;;4993197;28;20315;-80
2021/12/12 08:43:58;;;;;;;127.73;45.83;;;;;;;;;;4980491;28;20341;-81
2021/12/12 08:46:24;;;;;;;128.33;42.63;;;;;;;;;;5008809;28;20228;-80
2021/12/12 08:48:51;;;;;;;107.47;40.20;;;;;;;;;;5000312;28;20228;-82
2021/12/12 08:51:18;;;;;;;108.90;40.83;;;;;;;;;;4993619;28;20792;-82
2021/12/12 08:53:46;;;;;;;96.47;35.33;;;;;;;;;;4991559;28;20510;-80
2021/12/12 08:56:19;;;;;;;88.70;31.37;;;;;;;;;;5020457;28;20224;-81
2021/12/12 08:58:45;;;;;;;76.10;29.33;;;;;;;;;;5022903;28;20231;-80
2021/12/12 09:01:13;;;;;;;86.53;30.87;;;;;;;;;;5009795;28;20231;-80
2021/12/12 09:03:58;;;;;;;67.87;26.43;;;;;;;;;;4990961;28;20228;-81
2021/12/12 09:06:25;;;;;;;65.27;24.50;;;;;;;;;;5008420;28;20258;-79
2021/12/12 09:08:57;;;;;;;63.27;25.57;;;;;;;;;;5003899;28;20231;-82
2021/12/12 09:11:38;;;;;;;59.63;22.47;;;;;;;;;;5015408;28;20309;-79
2021/12/12 09:14:14;;;;;;;57.10;21.77;;;;;;;;;;5036135;28;20242;-81
2021/12/12 09:17:12;;;;;;;56.80;21.70;;;;;;;;;;4990510;28;20266;-79
2021/12/12 09:23:24;;;;;;;54.73;19.33;;;;;;;;;;4956418;28;20864;-80
2021/12/12 09:25:52;;;;;;;42.40;18.47;;;;;;;;;;4978650;28;20320;-80
2021/12/12 09:28:18;;;;;;;53.13;20.00;;;;;;;;;;5020183;28;20221;-76
2021/12/12 09:30:44;;;;;;;108.93;39.30;;;;;;;;;;5016031;28;20241;-76
2021/12/12 09:33:21;;;;;;;104.23;37.80;;;;;;;;;;5011297;28;20858;-80
2021/12/12 09:38:27;;;;;;;124.47;43.93;;;;;;;;;;5004620;28;21986;-60
2021/12/12 09:41:03;;;;;;;95.13;34.07;;;;;;;;;;4982207;28;20284;-60
2021/12/12 09:43:29;;;;;;;100.47;35.63;;;;;;;;;;5014231;28;20236;-60
2021/12/12 09:46:04;;;;;;;89.07;34.47;;;;;;;;;;5008898;28;20247;-59
2021/12/12 09:51:19;;;;;;;87.87;31.57;;;;;;;;;;4990106;28;20740;-60
2021/12/12 09:53:54;;;;;;;71.00;26.90;;;;;;;;;;4982405;28;21730;-57
2021/12/12 09:56:34;;;;;;;70.37;27.17;;;;;;;;;;4996602;28;20236;-59
2021/12/12 09:59:23;;;;;;;78.23;29.27;;;;;;;;;;4998357;28;20239;-60
2021/12/12 10:01:52;;;;;;;85.27;28.80;;;;;;;;;;4946242;28;20265;-60
2021/12/12 10:04:23;;;;;;;72.80;27.47;;;;;;;;;;4998459;28;20263;-59
2021/12/12 10:07:01;;;;;;;59.37;21.33;;;;;;;;;;4986769;28;20241;-60
2021/12/12 10:09:35;;;;;;;59.40;24.50;;;;;;;;;;4980989;28;20233;-61
2021/12/12 10:12:10;;;;;;;53.07;20.73;;;;;;;;;;4975724;28;21054;-60
2021/12/12 10:14:42;;;;;;;49.00;19.00;;;;;;;;;;4990644;28;20263;-59
2021/12/12 10:17:11;;;;;;;44.60;18.67;;;;;;;;;;4977943;28;20628;-59
2021/12/12 10:19:43;;;;;;;37.63;15.50;;;;;;;;;;4975403;28;20319;-59
2021/12/12 10:22:13;;;;;;;45.67;16.40;;;;;;;;;;4974896;28;20242;-59
2021/12/12 10:24:49;;;;;;;36.00;15.47;;;;;;;;;;4985285;28;20242;-59
2021/12/12 10:27:15;;;;;;;35.53;14.17;;;;;;;;;;4977598;28;20841;-59
2021/12/12 10:29:44;;;;;;;32.33;12.50;;;;;;;;;;4980583;28;20241;-59
2021/12/12 10:32:14;;;;;;;33.13;13.63;;;;;;;;;;4981819;28;20234;-59
2021/12/12 10:34:41;;;;;;;26.67;10.80;;;;;;;;;;4978962;28;20858;-59
2021/12/12 10:37:15;;;;;;;23.57;10.93;;;;;;;;;;4987987;28;20713;-59
2021/12/12 10:39:45;;;;;;;25.30;10.77;;;;;;;;;;4993145;28;20239;-59
2021/12/12 10:42:13;;;;;;;22.30;10.30;;;;;;;;;;4997436;28;20241;-59
2021/12/12 10:44:41;;;;;;;21.03;9.03;;;;;;;;;;4998985;28;20263;-59
2021/12/12 10:47:19;;;;;;;18.80;8.87;;;;;;;;;;5000844;28;21293;-60
2021/12/12 10:50:04;;;;;;;19.67;8.60;;;;;;;;;;4991595;28;20228;-59
2021/12/12 10:52:49;;;;;;;18.63;8.17;;;;;;;;;;5004015;28;20232;-59
2021/12/12 10:55:21;;;;;;;13.67;7.67;;;;;;;;;;5000791;28;20720;-59
2021/12/12 10:57:51;;;;;;;18.77;7.37;;;;;;;;;;4996714;28;20812;-59
2021/12/12 11:00:20;;;;;;;14.13;7.77;;;;;;;;;;4979630;28;20812;-60
2021/12/12 11:02:51;;;;;;;13.67;7.40;;;;;;;;;;4971392;28;20248;-60
2021/12/12 11:05:18;;;;;;;20.03;7.07;;;;;;;;;;4954383;28;20768;-60
2021/12/12 11:07:47;;;;;;;12.77;5.63;;;;;;;;;;4977472;28;20237;-60
2021/12/12 11:10:17;;;;;;;12.47;6.70;;;;;;;;;;4999421;28;20232;-59
2021/12/12 11:12:56;;;;;;;10.37;5.73;;;;;;;;;;5001192;28;20255;-60
2021/12/12 11:15:27;;;;;;;10.87;5.33;;;;;;;;;;4998584;28;20502;-59
2021/12/12 11:18:00;;;;;;;13.60;5.60;;;;;;;;;;4984402;28;20224;-59
2021/12/12 11:20:32;;;;;;;8.47;4.40;;;;;;;;;;4984992;28;20244;-60
2021/12/12 11:22:59;;;;;;;7.13;4.93;;;;;;;;;;5002372;28;20261;-60
2021/12/12 11:25:45;;;;;;;8.80;5.50;;;;;;;;;;4993358;28;20825;-59
2021/12/12 11:28:31;;;;;;;9.23;4.87;;;;;;;;;;4995137;28;20237;-62
2021/12/12 11:31:01;;;;;;;9.97;5.80;;;;;;;;;;4996936;28;20229;-59
2021/12/12 11:33:28;;;;;;;19.40;8.87;;;;;;;;;;4981037;28;20304;-63
2021/12/12 11:35:55;;;;;;;9.83;5.03;;;;;;;;;;4981464;28;20252;-61
2021/12/12 11:38:21;;;;;;;6.90;3.03;;;;;;;;;;5003661;28;20327;-62
2021/12/12 11:40:48;;;;;;;6.87;3.63;;;;;;;;;;4994087;28;20281;-62
2021/12/12 11:43:17;;;;;;;9.20;4.90;;;;;;;;;;4998808;28;20241;-61
2021/12/12 11:45:45;;;;;;;19.53;8.93;;;;;;;;;;4996322;28;20245;-59
2021/12/12 11:48:31;;;;;;;23.33;11.57;;;;;;;;;;5000116;28;20735;-58
2021/12/12 11:51:12;;;;;;;22.37;12.30;;;;;;;;;;5008100;28;20424;-58
2021/12/12 11:53:45;;;;;;;20.47;12.27;;;;;;;;;;4997577;28;20263;-59
2021/12/12 11:56:30;;;;;;;18.53;11.33;;;;;;;;;;4998160;28;20561;-57
2021/12/12 11:59:07;;;;;;;22.53;12.17;;;;;;;;;;4999885;28;20237;-57
2021/12/12 12:01:35;;;;;;;16.90;10.17;;;;;;;;;;4995754;28;20260;-58
2021/12/12 12:04:07;;;;;;;21.50;11.20;;;;;;;;;;4996192;28;20616;-57
2021/12/12 12:06:33;;;;;;;16.47;9.90;;;;;;;;;;4997841;28;20648;-57
2021/12/12 12:08:59;;;;;;;18.17;9.67;;;;;;;;;;4997099;28;20227;-57
2021/12/12 12:11:44;;;;;;;16.90;10.23;;;;;;;;;;4993261;28;20225;-57
2021/12/12 12:14:12;;;;;;;18.23;10.43;;;;;;;;;;4994672;28;20255;-57
2021/12/12 12:16:47;;;;;;;17.03;9.43;;;;;;;;;;4996673;28;20225;-58
2021/12/12 12:19:13;;;;;;;12.70;7.97;;;;;;;;;;5002505;28;20683;-57
2021/12/12 12:21:39;;;;;;;12.60;7.57;;;;;;;;;;4999631;28;20307;-58
2021/12/12 12:24:25;;;;;;;13.57;7.27;;;;;;;;;;5005381;28;20225;-57
2021/12/12 12:27:03;;;;;;;11.57;7.87;;;;;;;;;;4998626;28;20599;-57
2021/12/12 12:29:32;;;;;;;8.23;6.83;;;;;;;;;;5010298;28;20885;-57
2021/12/12 12:32:07;;;;;;;9.43;6.53;;;;;;;;;;5002950;28;20266;-57
2021/12/12 12:34:52;;;;;;;9.07;6.80;;;;;;;;;;5004096;28;20323;-57
2021/12/12 12:37:36;;;;;;;13.17;7.30;;;;;;;;;;4999861;28;20228;-57
2021/12/12 12:40:21;;;;;;;9.13;6.27;;;;;;;;;;4999817;28;20330;-57
2021/12/12 12:43:06;;;;;;;8.97;6.47;;;;;;;;;;5002607;28;20688;-57
2021/12/12 12:45:51;;;;;;;8.77;6.10;;;;;;;;;;4994942;28;20233;-56
2021/12/12 12:48:35;;;;;;;8.13;5.80;;;;;;;;;;4994216;28;20232;-57
2021/12/12 12:51:31;;;;;;;8.07;5.70;;;;;;;;;;4997407;28;20306;-57
2021/12/12 12:53:57;;;;;;;9.60;5.60;;;;;;;;;;4991307;28;20248;-57
2021/12/12 12:56:52;;;;;;;13.83;9.50;;;;;;;;;;4998993;28;20590;-57
2021/12/12 12:59:19;;;;;;;16.67;11.50;;;;;;;;;;4988743;28;20240;-57
2021/12/12 13:02:04;;;;;;;20.93;13.27;;;;;;;;;;4998262;28;20282;-57
2021/12/12 13:04:36;;;;;;;17.27;11.33;;;;;;;;;;4998460;28;20680;-57
2021/12/12 13:07:11;;;;;;;23.53;16.17;;;;;;;;;;4998802;28;20339;-56
2021/12/12 13:09:48;;;;;;;23.30;15.13;;;;;;;;;;5000521;28;20235;-57
2021/12/12 13:12:26;;;;;;;25.97;14.30;;;;;;;;;;4985742;28;20220;-56
2021/12/12 13:14:57;;;;;;;21.77;13.30;;;;;;;;;;4974148;28;20606;-56
2021/12/12 13:17:29;;;;;;;20.80;12.57;;;;;;;;;;4978872;28;21065;-56
2021/12/12 13:20:11;;;;;;;20.17;13.77;;;;;;;;;;5005739;28;20232;-57
2021/12/12 13:22:58;;;;;;;17.67;11.80;;;;;;;;;;5002903;28;25013;-56
2021/12/12 13:25:25;;;;;;;16.03;10.67;;;;;;;;;;4988976;28;20228;-56
2021/12/12 13:28:09;;;;;;;17.77;12.30;;;;;;;;;;5002815;28;20723;-56
2021/12/12 13:30:43;;;;;;;14.93;11.50;;;;;;;;;;5002681;28;20236;-56
2021/12/12 13:33:21;;;;;;;13.83;10.20;;;;;;;;;;4986293;28;20318;-56
2021/12/12 13:35:59;;;;;;;13.07;10.53;;;;;;;;;;4998699;28;20312;-57
2021/12/12 13:38:33;;;;;;;12.83;9.43;;;;;;;;;;5003737;28;20685;-56
2021/12/12 13:41:04;;;;;;;18.63;10.40;;;;;;;;;;4968106;28;20771;-56
2021/12/12 13:43:46;;;;;;;13.97;9.23;;;;;;;;;;4989018;28;20748;-56
2021/12/12 13:46:26;;;;;;;10.97;8.50;;;;;;;;;;4983685;28;20275;-56
2021/12/12 13:49:02;;;;;;;12.53;8.53;;;;;;;;;;4985083;28;20224;-57
2021/12/12 13:51:34;;;;;;;12.87;8.03;;;;;;;;;;4996057;28;20228;-56
2021/12/12 13:54:21;;;;;;;10.20;7.90;;;;;;;;;;5008007;28;20236;-56
2021/12/12 13:56:50;;;;;;;11.60;8.60;;;;;;;;;;4998677;28;20774;-56
2021/12/12 13:59:19;;;;;;;9.80;7.70;;;;;;;;;;4983611;28;20228;-56
2021/12/12 14:01:47;;;;;;;10.07;7.53;;;;;;;;;;5001148;28;21415;-55
2021/12/12 14:04:32;;;;;;;9.50;6.73;;;;;;;;;;4988393;28;20225;-55
2021/12/12 14:06:58;;;;;;;10.63;8.03;;;;;;;;;;5004219;28;20233;-55
2021/12/12 14:09:25;;;;;;;9.10;7.50;;;;;;;;;;4979680;28;20236;-55
2021/12/12 14:11:51;;;;;;;10.60;7.27;;;;;;;;;;4975995;28;20908;-55
2021/12/12 14:14:40;;;;;;;9.67;7.33;;;;;;;;;;5000314;28;20225;-55
2021/12/12 14:17:11;;;;;;;8.20;6.43;;;;;;;;;;4987722;28;20248;-55
2021/12/12 14:19:37;;;;;;;7.83;6.53;;;;;;;;;;5002328;28;20285;-56
2021/12/12 14:22:03;;;;;;;7.43;6.33;;;;;;;;;;4990984;28;20241;-57
2021/12/12 14:24:30;;;;;;;6.40;5.77;;;;;;;;;;4995981;28;20344;-56
2021/12/12 14:26:56;;;;;;;7.87;5.50;;;;;;;;;;4989573;28;20289;-55
2021/12/12 14:29:23;;;;;;;6.60;4.93;;;;;;;;;;4985617;28;20862;-55
2021/12/12 14:32:00;;;;;;;7.00;5.43;;;;;;;;;;5007603;28;20237;-55
2021/12/12 14:34:36;;;;;;;6.00;5.40;;;;;;;;;;5004605;28;20227;-55
2021/12/12 14:37:06;;;;;;;6.97;5.90;;;;;;;;;;5004718;28;20759;-55
2021/12/12 14:39:32;;;;;;;6.23;5.63;;;;;;;;;;4975364;28;20339;-55
2021/12/12 14:42:02;;;;;;;6.10;5.47;;;;;;;;;;5007040;28;20240;-55
2021/12/12 14:44:29;;;;;;;6.07;5.03;;;;;;;;;;4987499;28;20228;-55
2021/12/12 14:46:56;;;;;;;5.97;5.47;;;;;;;;;;5007061;28;20367;-55
2021/12/12 14:49:28;;;;;;;6.23;5.53;;;;;;;;;;5000957;28;20568;-55
2021/12/12 14:51:55;;;;;;;6.63;5.40;;;;;;;;;;5006629;28;20249;-56
2021/12/12 14:54:21;;;;;;;6.13;5.53;;;;;;;;;;5005831;28;20259;-55
2021/12/12 14:56:49;;;;;;;6.17;5.20;;;;;;;;;;5004791;28;20240;-55
2021/12/12 14:59:26;;;;;;;5.70;5.10;;;;;;;;;;4987183;28;20224;-55
2021/12/12 15:01:56;;;;;;;5.40;4.90;;;;;;;;;;5007220;28;20568;-56
2021/12/12 15:04:26;;;;;;;5.07;4.67;;;;;;;;;;4994041;28;20236;-56
2021/12/12 15:06:53;;;;;;;6.03;5.20;;;;;;;;;;4992217;28;21148;-55
2021/12/12 15:09:21;;;;;;;7.00;4.73;;;;;;;;;;5003540;28;20228;-56